メインページ
METAR-TAF:

METAR-TAF

空港 :

花巻, 日本

花巻空港

緯度: 39-26N, 経度: 141-08E, 海抜: 90m

現時点の気象観測

当レポートは57分前の23:00(UTC)に作成
北東の風 4kt、からの間で変化する
気温 -6°C
湿度 79%
気圧 1019 hPa
視程10km以上
高度800ftの雲はほとんどない
高度3000ftの雲は散在している
高度4000ftの千切れ雲あり
弱いにわか雪

METAR: RJSI 182300Z 04004KT 010V080 9999 -SHSN FEW008 SCT030 BKN040 M06/M09 Q1019

時間: 08:57 (23:57 UTC)


TAF: 見つかりません

4,000以上の空港の気象観測と天気予報(METAR報とTAF報)

利用可能な観測所は地図上に黄色い丸と赤い丸で示す。

丸の上にカーソルを重ねると観測所名を参照できる。

次にクリックすると気象観測と天気予報を参照できる。

マップの切り替え:黒色「×」印の緑ボタンをクリックして拡大、「-」印の緑ボタンをクリックして縮小、緑色の三角印をクリックして隣りの地図に切り替え


METAR-TAF: